To NAV CANADA Home Page Login to a new session Search on AWWS site Feedback and Comments Disclaimer Vers la page française équivalente Tips FAQ What's new on the site To the Forecasts and Observations / NOTAM section To "File a Flight Plan" website Publications and other links Update of the User's profile FIC Telephone Numbers My Weather Data Folder Route Weather Data Regional Weather Data Local Weather Data To the Forecasts and Observations / NOTAM section
Request Generated 08/25/2016 at 11:20:46 UTC . Weather information available at that time is displayed.

METAR/TAF

EARLTON/EARLTON (TIMISKAMING REGIONAL)/ON    (show WxCam)

SPECI CYXR 251119Z AUTO 36003KT 9SM FEW006 BKN009 BKN013 OVC026 19/19
A2982 RMK SLP100 DENSITY ALT 1500FT=
SPECI CYXR 251118Z AUTO 36003KT 9SM SCT006 BKN011 OVC026 19/19 A2982
RMK SLP100 DENSITY ALT 1500FT=
SPECI CYXR 251109Z AUTO 00000KT 9SM BKN012 BKN026 OVC044 19/19 A2982
RMK SLP100 DENSITY ALT 1500FT=
METAR CYXR 251100Z AUTO VRB02KT 9SM FEW014 SCT026 OVC044 19/19 A2981
RMK SLP099 DENSITY ALT 1500FT=
SPECI CYXR 251020Z AUTO 28004KT 9SM FEW009 SCT021 OVC037 19/18 A2980
RMK SLP094 DENSITY ALT 1600FT=
SPECI CYXR 251016Z AUTO 28005KT 7SM -RA FEW009 SCT021 BKN034 OVC041
19/18 A2980 RMK SLP093 DENSITY ALT 1600FT=
SPECI CYXR 251015Z AUTO 29004KT 6SM -RA BR FEW009 BKN021 OVC037 19/19
A2980 RMK SLP093 DENSITY ALT 1600FT=
SPECI CYXR 251012Z AUTO 29004KT 3SM -RA BR FEW009 SCT015 BKN021
OVC035 19/19 A2980 RMK SLP093 DENSITY ALT 1600FT=
SPECI CYXR 251011Z AUTO 29005KT 2 1/2SM -RA BR FEW009 SCT015 BKN021
OVC035 19/19 A2980 RMK SLP093 DENSITY ALT 1600FT=
METAR CYXR 251000Z AUTO 29008KT 1 1/2SM -RA BR FEW010 BKN019 OVC030
19/19 A2980 RMK SLP093 DENSITY ALT 1600FT=
SPECI CYXR 250959Z AUTO 29008KT 1 1/2SM -RA BR FEW010 BKN019 OVC030
19/19 A2980 RMK SLP092 DENSITY ALT 1600FT=
SPECI CYXR 250951Z AUTO 28009KT 1 1/4SM -RA BR FEW012 SCT016 BKN021
OVC026 19/19 A2980 RMK SLP092 DENSITY ALT 1600FT=
SPECI CYXR 250932Z AUTO 26005KT 2 1/4SM -RA BR FEW012 BKN019 OVC027
20/19 A2979 RMK SLP091 DENSITY ALT 1600FT=
SPECI CYXR 250928Z AUTO 27005KT 3SM RA BR FEW012 BKN019 BKN027 OVC039
20/19 A2979 RMK SLP091 DENSITY ALT 1600FT=
SPECI CYXR 250924Z AUTO 26005KT 4SM RA BR SCT014 SCT019 BKN025 OVC039
20/19 A2979 RMK SLP090 DENSITY ALT 1600FT=
SPECI CYXR 250922Z AUTO 25006KT 5SM -RA BR BKN014 BKN025 OVC039 20/19
A2979 RMK SLP090 DENSITY ALT 1600FT=
SPECI CYXR 250919Z AUTO 25004KT 9SM SCT014 BKN018 BKN025 OVC039 20/19
A2979 RMK SLP089 DENSITY ALT 1600FT=
SPECI CYXR 250918Z AUTO 24004KT 9SM SCT014 SCT018 BKN025 OVC039 20/19
A2979 RMK SLP089 DENSITY ALT 1600FT=
SPECI CYXR 250916Z AUTO 24005KT 9SM FEW014 SCT018 BKN023 OVC039 20/19
A2979 RMK SLP089 DENSITY ALT 1600FT=
SPECI CYXR 250913Z AUTO 24005KT 6SM BR FEW018 SCT023 OVC039 20/19
A2979 RMK SLP089 DENSITY ALT 1600FT=
SPECI CYXR 250902Z AUTO 26007KT 5SM BR OVC039 20/19 A2978 RMK SLP088
DENSITY ALT 1600FT=
METAR CYXR 250900Z AUTO 25006KT 6SM BR BKN039 20/19 A2978 RMK SLP088
DENSITY ALT 1600FT=

*** REMARK        : Forecast period has ended; this was the last TAF issued
*** REMARQUE : La période de prévision est échue; ceci était le dernier TAF qui a été émis
TAF AMD CYXR 242258Z 2422/2424 15010KT P6SM -SHRA FEW020 BKN040 TEMPO
2422/2424 2SM -SHRA BR SCT008 OVC020 PROB30 2422/2424 2SM TSRA
BR BKN020CB
RMK FCST BASED ON AUTO OBS. NXT FCST WILL BE ISSUED AT 251145Z=
Your time UTC time
Weather data provided by Environment Canada and NAV CANADA